Ohshima Kazumaru — JD2908 — position and weather

sailwx.info

Track history (hours):
 
Tides and Currents Weather Stations Pressure Air Temp Water Temp Dewpoint Dewpoint Depression Visibility Wind Speed Wind Dir Waves Ship Positions

Ohshima Kazumaru

Last reported at 2016-Jul-23 12:17 UTC. Time now 2016-Jul-24 04:55 UTC.
Position N 34°08' E 134°46'.

Length 69 m; draft 4 m.

Type: Cargo ship. MMSI: 431000925.

Date/timePositionNaut miles runAvg speedWind from/ knotsBaromVisibWave heightAir tempDewpointWater temp
2016-Jul-23 12:17N 34°08' E 134°46'23910.3
2016-Jul-22 13:10N 35°01' E 139°28'912.2
2016-Jul-22 12:27N 35°05' E 139°37'1111.9
2016-Jul-22 11:33N 35°13' E 139°46'1211.8
2016-Jul-22 10:33N 35°25' E 139°43'7 7.2
2016-Jul-22 09:32N 35°32' E 139°47'0 0.0
2016-Jul-22 08:33N 35°32' E 139°47'0 0.0
2016-Jul-22 07:33N 35°32' E 139°47'0 0.0
2016-Jul-22 04:33N 35°32' E 139°47'0 0.0
2016-Jul-22 03:24N 35°32' E 139°47'0 0.0
2016-Jul-22 02:33N 35°32' E 139°47'0 0.0
2016-Jul-22 01:18N 35°32' E 139°47'0 0.0
2016-Jul-22 00:30N 35°32' E 139°47'0 0.0
2016-Jul-21 23:24N 35°32' E 139°47'0 0.0
2016-Jul-21 22:30N 35°32' E 139°47'0 0.0
2016-Jul-21 21:24N 35°32' E 139°47'0 0.0
2016-Jul-21 20:30N 35°32' E 139°47'0 0.0
2016-Jul-21 18:30N 35°32' E 139°47'0 0.0
2016-Jul-21 17:18N 35°32' E 139°47'0 0.0
2016-Jul-21 16:30N 35°32' E 139°47'0 0.0
2016-Jul-21 13:06N 35°32' E 139°47'0 0.0
2016-Jul-21 11:12N 35°32' E 139°47'0 0.0
2016-Jul-21 10:24N 35°32' E 139°47'0 0.0
2016-Jul-21 09:30N 35°32' E 139°47'0 0.0
2016-Jul-21 08:30N 35°32' E 139°47'0 0.0
2016-Jul-21 07:33N 35°32' E 139°47'0 0.0
2016-Jul-21 06:30N 35°32' E 139°47'0 0.0
2016-Jul-21 05:30N 35°32' E 139°47'0 0.0
2016-Jul-21 04:33N 35°32' E 139°47'0 0.0
2016-Jul-21 03:21N 35°32' E 139°47'0 0.0
2016-Jul-21 02:33N 35°32' E 139°47'0 0.0
2016-Jul-21 01:30N 35°32' E 139°47'0 0.0
2016-Jul-21 00:30N 35°32' E 139°47'0 0.0
2016-Jul-20 23:33N 35°32' E 139°47'0 0.0
2016-Jul-20 22:32N 35°32' E 139°47'2 2.3
2016-Jul-20 21:31N 35°30' E 139°50'0 0.0
2016-Jul-20 20:31N 35°30' E 139°50'0 0.0
2016-Jul-20 19:31N 35°30' E 139°50'0 0.0
2016-Jul-20 18:31N 35°30' E 139°50'0 0.0
2016-Jul-20 17:31N 35°30' E 139°50'0 0.0
2016-Jul-20 16:31N 35°30' E 139°50'0 0.0
2016-Jul-20 15:31N 35°30' E 139°50'0 0.0
2016-Jul-20 14:31N 35°30' E 139°50'0 0.0
2016-Jul-20 13:31N 35°30' E 139°50'0 0.0
2016-Jul-20 12:31N 35°30' E 139°50'0 0.0
2016-Jul-20 11:31N 35°30' E 139°50'0 0.0
2016-Jul-20 10:31N 35°30' E 139°50'0 0.0
2016-Jul-20 09:31N 35°30' E 139°50'0 0.0
2016-Jul-20 08:31N 35°30' E 139°50'0 0.0
2016-Jul-20 07:31N 35°30' E 139°50'0 0.0
2016-Jul-20 06:31N 35°30' E 139°50'0 0.0
2016-Jul-20 05:31N 35°30' E 139°50'0 0.0
2016-Jul-20 03:25N 35°30' E 139°50'0 0.0
2016-Jul-20 02:31N 35°30' E 139°50'0 0.0
2016-Jul-20 01:31N 35°30' E 139°50'0 0.0
2016-Jul-20 00:31N 35°30' E 139°50'0 0.0
2016-Jul-19 23:31N 35°30' E 139°50'0 0.0
2016-Jul-19 22:31N 35°30' E 139°50'0 0.0
2016-Jul-19 21:31N 35°30' E 139°50'0 0.1
2016-Jul-19 20:28N 35°30' E 139°50'0 0.0
2016-Jul-19 19:31N 35°30' E 139°50'0 0.1
2016-Jul-19 18:31N 35°30' E 139°50'0 0.0
2016-Jul-19 17:31N 35°30' E 139°50'0 0.0
2016-Jul-19 16:31N 35°30' E 139°50'0 0.0
2016-Jul-19 15:31N 35°30' E 139°50'0 0.0
2016-Jul-19 14:31N 35°30' E 139°50'0 0.0
2016-Jul-19 13:31N 35°30' E 139°50'0 0.0
2016-Jul-19 12:31N 35°30' E 139°50'0 0.0
2016-Jul-19 11:31N 35°30' E 139°50'0 0.1
2016-Jul-19 10:31N 35°30' E 139°50'0 0.0
2016-Jul-19 09:31N 35°30' E 139°50'0 0.0
2016-Jul-19 08:31N 35°30' E 139°50'5 5.1
2016-Jul-19 07:33N 35°26' E 139°47'8110.8
2016-Jul-19 00:04N 34°31' E 138°35'  
2016-Jul-15 10:31N 34°07' E 134°46'239 9.5
2016-Jul-14 09:23N 35°00' E 139°29'1011.1
2016-Jul-14 08:29N 35°06' E 139°39'1111.2
2016-Jul-14 07:33N 35°15' E 139°46'1111.0
2016-Jul-14 06:33N 35°25' E 139°44'5 5.2
2016-Jul-14 05:33N 35°30' E 139°45'0 0.0
2016-Jul-14 04:33N 35°30' E 139°45'0 0.0
2016-Jul-14 03:33N 35°30' E 139°45'0 0.0
2016-Jul-14 02:33N 35°30' E 139°45'0 0.0
2016-Jul-14 01:33N 35°30' E 139°45'0 0.0
2016-Jul-14 00:33N 35°30' E 139°45'0 0.0
2016-Jul-13 23:33N 35°30' E 139°45'0 0.0
2016-Jul-13 22:33N 35°30' E 139°45'4 3.6
2016-Jul-13 21:33N 35°31' E 139°50'0 0.0
2016-Jul-13 20:33N 35°31' E 139°50'0 0.1
2016-Jul-13 19:33N 35°31' E 139°50'0 0.0
2016-Jul-13 18:33N 35°31' E 139°50'0 0.0
2016-Jul-13 17:33N 35°31' E 139°50'8 7.9
2016-Jul-13 16:33N 35°23' E 139°46'1110.9
2016-Jul-13 15:33N 35°13' E 139°47'  
Track history (hours):
 
Tides and Currents Weather Stations Pressure Air Temp Water Temp Dewpoint Dewpoint Depression Visibility Wind Speed Wind Dir Waves Ship Positions

Ohshima Kazumaru

Last reported at 2016-Jul-23 12:17 UTC. Time now 2016-Jul-24 04:55 UTC.
Position N 34°08' E 134°46'.

Length 69 m; draft 4 m.

Type: Cargo ship. MMSI: 431000925.

Date/timePositionNaut miles runAvg speedWind from/ knotsBaromVisibWave heightAir tempDewpointWater temp
2016-Jul-23 12:17N 34°08' E 134°46'23910.3
2016-Jul-22 13:10N 35°01' E 139°28'912.2
2016-Jul-22 12:27N 35°05' E 139°37'1111.9
2016-Jul-22 11:33N 35°13' E 139°46'1211.8
2016-Jul-22 10:33N 35°25' E 139°43'7 7.2
2016-Jul-22 09:32N 35°32' E 139°47'0 0.0
2016-Jul-22 08:33N 35°32' E 139°47'0 0.0
2016-Jul-22 07:33N 35°32' E 139°47'0 0.0
2016-Jul-22 04:33N 35°32' E 139°47'0 0.0
2016-Jul-22 03:24N 35°32' E 139°47'0 0.0
2016-Jul-22 02:33N 35°32' E 139°47'0 0.0
2016-Jul-22 01:18N 35°32' E 139°47'0 0.0
2016-Jul-22 00:30N 35°32' E 139°47'0 0.0
2016-Jul-21 23:24N 35°32' E 139°47'0 0.0
2016-Jul-21 22:30N 35°32' E 139°47'0 0.0
2016-Jul-21 21:24N 35°32' E 139°47'0 0.0
2016-Jul-21 20:30N 35°32' E 139°47'0 0.0
2016-Jul-21 18:30N 35°32' E 139°47'0 0.0
2016-Jul-21 17:18N 35°32' E 139°47'0 0.0
2016-Jul-21 16:30N 35°32' E 139°47'0 0.0
2016-Jul-21 13:06N 35°32' E 139°47'0 0.0
2016-Jul-21 11:12N 35°32' E 139°47'0 0.0
2016-Jul-21 10:24N 35°32' E 139°47'0 0.0
2016-Jul-21 09:30N 35°32' E 139°47'0 0.0
2016-Jul-21 08:30N 35°32' E 139°47'0 0.0
2016-Jul-21 07:33N 35°32' E 139°47'0 0.0
2016-Jul-21 06:30N 35°32' E 139°47'0 0.0
2016-Jul-21 05:30N 35°32' E 139°47'0 0.0
2016-Jul-21 04:33N 35°32' E 139°47'0 0.0
2016-Jul-21 03:21N 35°32' E 139°47'0 0.0
2016-Jul-21 02:33N 35°32' E 139°47'0 0.0
2016-Jul-21 01:30N 35°32' E 139°47'0 0.0
2016-Jul-21 00:30N 35°32' E 139°47'0 0.0
2016-Jul-20 23:33N 35°32' E 139°47'0 0.0
2016-Jul-20 22:32N 35°32' E 139°47'2 2.3
2016-Jul-20 21:31N 35°30' E 139°50'0 0.0
2016-Jul-20 20:31N 35°30' E 139°50'0 0.0
2016-Jul-20 19:31N 35°30' E 139°50'0 0.0
2016-Jul-20 18:31N 35°30' E 139°50'0 0.0
2016-Jul-20 17:31N 35°30' E 139°50'0 0.0
2016-Jul-20 16:31N 35°30' E 139°50'0 0.0
2016-Jul-20 15:31N 35°30' E 139°50'0 0.0
2016-Jul-20 14:31N 35°30' E 139°50'0 0.0
2016-Jul-20 13:31N 35°30' E 139°50'0 0.0
2016-Jul-20 12:31N 35°30' E 139°50'0 0.0
2016-Jul-20 11:31N 35°30' E 139°50'0 0.0
2016-Jul-20 10:31N 35°30' E 139°50'0 0.0
2016-Jul-20 09:31N 35°30' E 139°50'0 0.0
2016-Jul-20 08:31N 35°30' E 139°50'0 0.0
2016-Jul-20 07:31N 35°30' E 139°50'0 0.0
2016-Jul-20 06:31N 35°30' E 139°50'0 0.0
2016-Jul-20 05:31N 35°30' E 139°50'0 0.0
2016-Jul-20 03:25N 35°30' E 139°50'0 0.0
2016-Jul-20 02:31N 35°30' E 139°50'0 0.0
2016-Jul-20 01:31N 35°30' E 139°50'0 0.0
2016-Jul-20 00:31N 35°30' E 139°50'0 0.0
2016-Jul-19 23:31N 35°30' E 139°50'0 0.0
2016-Jul-19 22:31N 35°30' E 139°50'0 0.0
2016-Jul-19 21:31N 35°30' E 139°50'0 0.1
2016-Jul-19 20:28N 35°30' E 139°50'0 0.0
2016-Jul-19 19:31N 35°30' E 139°50'0 0.1
2016-Jul-19 18:31N 35°30' E 139°50'0 0.0
2016-Jul-19 17:31N 35°30' E 139°50'0 0.0
2016-Jul-19 16:31N 35°30' E 139°50'0 0.0
2016-Jul-19 15:31N 35°30' E 139°50'0 0.0
2016-Jul-19 14:31N 35°30' E 139°50'0 0.0
2016-Jul-19 13:31N 35°30' E 139°50'0 0.0
2016-Jul-19 12:31N 35°30' E 139°50'0 0.0
2016-Jul-19 11:31N 35°30' E 139°50'0 0.1
2016-Jul-19 10:31N 35°30' E 139°50'0 0.0
2016-Jul-19 09:31N 35°30' E 139°50'0 0.0
2016-Jul-19 08:31N 35°30' E 139°50'5 5.1
2016-Jul-19 07:33N 35°26' E 139°47'8110.8
2016-Jul-19 00:04N 34°31' E 138°35'  
2016-Jul-15 10:31N 34°07' E 134°46'239 9.5
2016-Jul-14 09:23N 35°00' E 139°29'1011.1
2016-Jul-14 08:29N 35°06' E 139°39'1111.2
2016-Jul-14 07:33N 35°15' E 139°46'1111.0
2016-Jul-14 06:33N 35°25' E 139°44'5 5.2
2016-Jul-14 05:33N 35°30' E 139°45'0 0.0
2016-Jul-14 04:33N 35°30' E 139°45'0 0.0
2016-Jul-14 03:33N 35°30' E 139°45'0 0.0
2016-Jul-14 02:33N 35°30' E 139°45'0 0.0
2016-Jul-14 01:33N 35°30' E 139°45'0 0.0
2016-Jul-14 00:33N 35°30' E 139°45'0 0.0
2016-Jul-13 23:33N 35°30' E 139°45'0 0.0
2016-Jul-13 22:33N 35°30' E 139°45'4 3.6
2016-Jul-13 21:33N 35°31' E 139°50'0 0.0
2016-Jul-13 20:33N 35°31' E 139°50'0 0.1
2016-Jul-13 19:33N 35°31' E 139°50'0 0.0
2016-Jul-13 18:33N 35°31' E 139°50'0 0.0
2016-Jul-13 17:33N 35°31' E 139°50'8 7.9
2016-Jul-13 16:33N 35°23' E 139°46'1110.9
2016-Jul-13 15:33N 35°13' E 139°47'  

Dump ship's entire track history